sensor_id;sensor_type;location;lat;lon;timestamp;P1;durP1;ratioP1;P2;durP2;ratioP2
13234;SDS011;6683;48.506;9.050;2022-11-18T00:01:58;0.80;;;0.60;;
13234;SDS011;6683;48.506;9.050;2022-11-18T00:05:02;1.07;;;0.60;;
13234;SDS011;6683;48.506;9.050;2022-11-18T00:08:05;0.87;;;0.60;;
13234;SDS011;6683;48.506;9.050;2022-11-18T00:11:09;1.00;;;0.67;;
13234;SDS011;6683;48.506;9.050;2022-11-18T00:14:34;0.60;;;0.60;;
13234;SDS011;6683;48.506;9.050;2022-11-18T00:17:35;0.67;;;0.50;;
13234;SDS011;6683;48.506;9.050;2022-11-18T00:20:40;0.60;;;0.50;;
13234;SDS011;6683;48.506;9.050;2022-11-18T00:23:42;0.70;;;0.60;;
13234;SDS011;6683;48.506;9.050;2022-11-18T00:26:45;1.27;;;0.50;;
13234;SDS011;6683;48.506;9.050;2022-11-18T00:29:48;0.70;;;0.40;;
13234;SDS011;6683;48.506;9.050;2022-11-18T00:32:50;0.80;;;0.60;;
13234;SDS011;6683;48.506;9.050;2022-11-18T00:35:54;0.50;;;0.50;;
13234;SDS011;6683;48.506;9.050;2022-11-18T00:38:57;0.60;;;0.53;;
13234;SDS011;6683;48.506;9.050;2022-11-18T00:41:59;0.57;;;0.50;;
13234;SDS011;6683;48.506;9.050;2022-11-18T00:45:19;0.60;;;0.50;;
13234;SDS011;6683;48.506;9.050;2022-11-18T00:48:23;1.30;;;0.90;;
13234;SDS011;6683;48.506;9.050;2022-11-18T00:51:27;0.60;;;0.50;;
13234;SDS011;6683;48.506;9.050;2022-11-18T00:54:29;1.30;;;0.60;;
13234;SDS011;6683;48.506;9.050;2022-11-18T00:57:32;3.00;;;0.87;;
13234;SDS011;6683;48.506;9.050;2022-11-18T01:00:34;2.17;;;1.10;;
13234;SDS011;6683;48.506;9.050;2022-11-18T01:03:37;1.37;;;0.90;;
13234;SDS011;6683;48.506;9.050;2022-11-18T01:06:41;0.80;;;0.67;;
13234;SDS011;6683;48.506;9.050;2022-11-18T01:09:44;1.57;;;1.00;;
13234;SDS011;6683;48.506;9.050;2022-11-18T01:12:46;1.47;;;0.80;;
13234;SDS011;6683;48.506;9.050;2022-11-18T01:16:06;0.90;;;0.60;;
13234;SDS011;6683;48.506;9.050;2022-11-18T01:19:09;1.93;;;0.70;;
13234;SDS011;6683;48.506;9.050;2022-11-18T01:22:14;0.77;;;0.77;;
13234;SDS011;6683;48.506;9.050;2022-11-18T01:25:16;0.87;;;0.70;;
13234;SDS011;6683;48.506;9.050;2022-11-18T01:28:19;1.17;;;1.00;;
13234;SDS011;6683;48.506;9.050;2022-11-18T01:31:22;1.00;;;0.70;;
13234;SDS011;6683;48.506;9.050;2022-11-18T01:34:26;2.07;;;0.80;;
13234;SDS011;6683;48.506;9.050;2022-11-18T01:37:30;2.90;;;0.90;;
13234;SDS011;6683;48.506;9.050;2022-11-18T01:40:33;2.10;;;0.80;;
13234;SDS011;6683;48.506;9.050;2022-11-18T01:43:50;1.27;;;0.90;;
13234;SDS011;6683;48.506;9.050;2022-11-18T01:46:56;0.80;;;0.80;;
13234;SDS011;6683;48.506;9.050;2022-11-18T01:49:58;0.97;;;0.87;;
13234;SDS011;6683;48.506;9.050;2022-11-18T01:53:04;0.90;;;0.70;;
13234;SDS011;6683;48.506;9.050;2022-11-18T01:56:16;0.83;;;0.70;;
13234;SDS011;6683;48.506;9.050;2022-11-18T01:59:24;1.70;;;0.80;;
13234;SDS011;6683;48.506;9.050;2022-11-18T02:02:32;1.03;;;1.00;;
13234;SDS011;6683;48.506;9.050;2022-11-18T02:05:36;0.80;;;0.80;;
13234;SDS011;6683;48.506;9.050;2022-11-18T02:08:42;1.67;;;0.93;;
13234;SDS011;6683;48.506;9.050;2022-11-18T02:11:45;1.27;;;1.10;;
13234;SDS011;6683;48.506;9.050;2022-11-18T02:14:53;0.90;;;0.80;;
13234;SDS011;6683;48.506;9.050;2022-11-18T02:17:56;0.70;;;0.70;;
13234;SDS011;6683;48.506;9.050;2022-11-18T02:21:11;0.87;;;0.80;;
13234;SDS011;6683;48.506;9.050;2022-11-18T02:24:33;1.30;;;1.00;;
13234;SDS011;6683;48.506;9.050;2022-11-18T02:27:55;0.87;;;0.83;;
13234;SDS011;6683;48.506;9.050;2022-11-18T02:31:21;1.67;;;0.90;;
13234;SDS011;6683;48.506;9.050;2022-11-18T02:34:34;1.00;;;0.90;;
13234;SDS011;6683;48.506;9.050;2022-11-18T02:37:44;1.17;;;1.07;;
13234;SDS011;6683;48.506;9.050;2022-11-18T02:40:55;1.10;;;0.90;;
13234;SDS011;6683;48.506;9.050;2022-11-18T02:44:03;1.30;;;1.20;;
13234;SDS011;6683;48.506;9.050;2022-11-18T02:47:12;0.80;;;0.80;;
13234;SDS011;6683;48.506;9.050;2022-11-18T02:50:16;1.10;;;1.00;;
13234;SDS011;6683;48.506;9.050;2022-11-18T02:53:24;0.83;;;0.83;;
13234;SDS011;6683;48.506;9.050;2022-11-18T02:56:31;1.80;;;1.00;;
13234;SDS011;6683;48.506;9.050;2022-11-18T02:59:35;1.13;;;1.03;;
13234;SDS011;6683;48.506;9.050;2022-11-18T03:02:42;1.10;;;1.00;;
13234;SDS011;6683;48.506;9.050;2022-11-18T03:05:47;2.17;;;0.80;;
13234;SDS011;6683;48.506;9.050;2022-11-18T03:09:07;1.10;;;0.90;;
13234;SDS011;6683;48.506;9.050;2022-11-18T03:12:17;2.33;;;0.97;;
13234;SDS011;6683;48.506;9.050;2022-11-18T03:15:33;0.97;;;0.87;;
13234;SDS011;6683;48.506;9.050;2022-11-18T03:18:45;1.20;;;0.90;;
13234;SDS011;6683;48.506;9.050;2022-11-18T03:21:56;0.77;;;0.77;;
13234;SDS011;6683;48.506;9.050;2022-11-18T03:25:09;1.00;;;0.90;;
13234;SDS011;6683;48.506;9.050;2022-11-18T03:28:21;0.60;;;0.60;;
13234;SDS011;6683;48.506;9.050;2022-11-18T03:31:31;0.73;;;0.70;;
13234;SDS011;6683;48.506;9.050;2022-11-18T03:34:42;1.40;;;0.77;;
13234;SDS011;6683;48.506;9.050;2022-11-18T03:37:48;0.63;;;0.63;;
13234;SDS011;6683;48.506;9.050;2022-11-18T03:40:57;1.33;;;0.83;;
13234;SDS011;6683;48.506;9.050;2022-11-18T03:44:06;1.07;;;0.70;;
13234;SDS011;6683;48.506;9.050;2022-11-18T03:47:15;1.00;;;0.90;;
13234;SDS011;6683;48.506;9.050;2022-11-18T03:50:25;1.33;;;1.23;;
13234;SDS011;6683;48.506;9.050;2022-11-18T03:53:33;1.20;;;1.10;;
13234;SDS011;6683;48.506;9.050;2022-11-18T03:56:40;1.20;;;1.10;;
13234;SDS011;6683;48.506;9.050;2022-11-18T03:59:49;1.23;;;1.13;;
13234;SDS011;6683;48.506;9.050;2022-11-18T04:02:57;1.20;;;1.00;;
13234;SDS011;6683;48.506;9.050;2022-11-18T04:06:02;1.50;;;1.30;;
13234;SDS011;6683;48.506;9.050;2022-11-18T04:09:18;2.47;;;1.40;;
13234;SDS011;6683;48.506;9.050;2022-11-18T04:12:25;1.20;;;1.10;;
13234;SDS011;6683;48.506;9.050;2022-11-18T04:15:32;1.27;;;1.17;;
13234;SDS011;6683;48.506;9.050;2022-11-18T04:18:37;1.97;;;1.00;;
13234;SDS011;6683;48.506;9.050;2022-11-18T04:21:41;0.83;;;0.83;;
13234;SDS011;6683;48.506;9.050;2022-11-18T04:24:44;0.80;;;0.80;;
13234;SDS011;6683;48.506;9.050;2022-11-18T04:27:46;1.07;;;0.90;;
13234;SDS011;6683;48.506;9.050;2022-11-18T04:30:49;0.70;;;0.70;;
13234;SDS011;6683;48.506;9.050;2022-11-18T04:33:51;1.00;;;0.80;;
13234;SDS011;6683;48.506;9.050;2022-11-18T04:36:56;2.03;;;0.93;;
13234;SDS011;6683;48.506;9.050;2022-11-18T04:39:58;1.10;;;0.97;;
13234;SDS011;6683;48.506;9.050;2022-11-18T04:43:01;1.83;;;0.90;;
13234;SDS011;6683;48.506;9.050;2022-11-18T04:46:04;1.13;;;1.00;;
13234;SDS011;6683;48.506;9.050;2022-11-18T04:49:06;1.17;;;1.07;;
13234;SDS011;6683;48.506;9.050;2022-11-18T04:52:11;1.03;;;0.83;;
13234;SDS011;6683;48.506;9.050;2022-11-18T04:55:14;0.80;;;0.70;;
13234;SDS011;6683;48.506;9.050;2022-11-18T04:58:17;0.90;;;0.90;;
13234;SDS011;6683;48.506;9.050;2022-11-18T05:01:19;1.67;;;0.80;;
13234;SDS011;6683;48.506;9.050;2022-11-18T05:04:23;1.47;;;0.80;;
13234;SDS011;6683;48.506;9.050;2022-11-18T05:07:30;0.90;;;0.77;;
13234;SDS011;6683;48.506;9.050;2022-11-18T05:10:33;1.00;;;0.80;;
13234;SDS011;6683;48.506;9.050;2022-11-18T05:13:35;0.70;;;0.60;;
13234;SDS011;6683;48.506;9.050;2022-11-18T05:16:37;1.23;;;0.77;;
13234;SDS011;6683;48.506;9.050;2022-11-18T05:19:39;0.83;;;0.70;;
13234;SDS011;6683;48.506;9.050;2022-11-18T05:22:43;0.60;;;0.60;;
13234;SDS011;6683;48.506;9.050;2022-11-18T05:25:45;0.70;;;0.50;;
13234;SDS011;6683;48.506;9.050;2022-11-18T05:28:48;0.97;;;0.50;;
13234;SDS011;6683;48.506;9.050;2022-11-18T05:31:51;1.27;;;0.50;;
13234;SDS011;6683;48.506;9.050;2022-11-18T05:34:54;0.70;;;0.70;;
13234;SDS011;6683;48.506;9.050;2022-11-18T05:37:58;0.50;;;0.50;;
13234;SDS011;6683;48.506;9.050;2022-11-18T05:41:02;1.70;;;0.50;;
13234;SDS011;6683;48.506;9.050;2022-11-18T05:44:05;0.50;;;0.50;;
13234;SDS011;6683;48.506;9.050;2022-11-18T05:47:06;0.50;;;0.40;;
13234;SDS011;6683;48.506;9.050;2022-11-18T05:50:09;0.40;;;0.40;;
13234;SDS011;6683;48.506;9.050;2022-11-18T05:53:13;0.60;;;0.30;;
13234;SDS011;6683;48.506;9.050;2022-11-18T05:56:18;1.20;;;0.50;;
13234;SDS011;6683;48.506;9.050;2022-11-18T05:59:24;0.50;;;0.50;;
13234;SDS011;6683;48.506;9.050;2022-11-18T06:02:27;0.50;;;0.50;;
13234;SDS011;6683;48.506;9.050;2022-11-18T06:05:30;1.20;;;0.73;;
13234;SDS011;6683;48.506;9.050;2022-11-18T06:08:34;0.93;;;0.73;;
13234;SDS011;6683;48.506;9.050;2022-11-18T06:11:39;0.93;;;0.87;;
13234;SDS011;6683;48.506;9.050;2022-11-18T06:14:45;2.17;;;1.20;;
13234;SDS011;6683;48.506;9.050;2022-11-18T06:17:53;1.03;;;0.93;;
13234;SDS011;6683;48.506;9.050;2022-11-18T06:21:00;0.80;;;0.80;;
13234;SDS011;6683;48.506;9.050;2022-11-18T06:24:07;0.60;;;0.60;;
13234;SDS011;6683;48.506;9.050;2022-11-18T06:27:10;0.50;;;0.50;;
13234;SDS011;6683;48.506;9.050;2022-11-18T06:30:13;1.13;;;0.50;;
13234;SDS011;6683;48.506;9.050;2022-11-18T06:33:16;1.17;;;1.00;;
13234;SDS011;6683;48.506;9.050;2022-11-18T06:36:19;0.70;;;0.50;;
13234;SDS011;6683;48.506;9.050;2022-11-18T06:39:23;0.63;;;0.57;;
13234;SDS011;6683;48.506;9.050;2022-11-18T06:42:26;0.70;;;0.57;;
13234;SDS011;6683;48.506;9.050;2022-11-18T06:45:46;1.30;;;0.50;;
13234;SDS011;6683;48.506;9.050;2022-11-18T06:49:02;0.60;;;0.40;;
13234;SDS011;6683;48.506;9.050;2022-11-18T06:52:05;0.57;;;0.40;;
13234;SDS011;6683;48.506;9.050;2022-11-18T06:55:09;0.40;;;0.37;;
13234;SDS011;6683;48.506;9.050;2022-11-18T06:58:12;0.50;;;0.40;;
13234;SDS011;6683;48.506;9.050;2022-11-18T07:01:15;0.50;;;0.43;;
13234;SDS011;6683;48.506;9.050;2022-11-18T07:04:20;1.37;;;0.70;;
13234;SDS011;6683;48.506;9.050;2022-11-18T07:07:23;0.60;;;0.47;;
13234;SDS011;6683;48.506;9.050;2022-11-18T07:10:27;0.60;;;0.60;;
13234;SDS011;6683;48.506;9.050;2022-11-18T07:13:30;2.37;;;2.17;;
13234;SDS011;6683;48.506;9.050;2022-11-18T07:16:33;2.30;;;1.37;;
13234;SDS011;6683;48.506;9.050;2022-11-18T07:19:37;1.77;;;0.90;;
13234;SDS011;6683;48.506;9.050;2022-11-18T07:22:40;0.67;;;0.67;;
13234;SDS011;6683;48.506;9.050;2022-11-18T07:25:44;2.30;;;0.90;;
13234;SDS011;6683;48.506;9.050;2022-11-18T07:28:46;1.83;;;0.90;;
13234;SDS011;6683;48.506;9.050;2022-11-18T07:31:49;1.40;;;0.80;;
13234;SDS011;6683;48.506;9.050;2022-11-18T07:34:51;1.43;;;0.70;;
13234;SDS011;6683;48.506;9.050;2022-11-18T07:37:54;0.70;;;0.70;;
13234;SDS011;6683;48.506;9.050;2022-11-18T07:41:03;1.67;;;0.70;;
13234;SDS011;6683;48.506;9.050;2022-11-18T07:44:10;0.70;;;0.60;;
13234;SDS011;6683;48.506;9.050;2022-11-18T07:47:12;0.70;;;0.60;;
13234;SDS011;6683;48.506;9.050;2022-11-18T07:50:15;0.70;;;0.70;;
13234;SDS011;6683;48.506;9.050;2022-11-18T07:53:18;0.87;;;0.60;;
13234;SDS011;6683;48.506;9.050;2022-11-18T07:56:22;1.70;;;0.70;;
13234;SDS011;6683;48.506;9.050;2022-11-18T07:59:25;1.33;;;0.77;;
13234;SDS011;6683;48.506;9.050;2022-11-18T08:02:27;1.07;;;0.97;;
13234;SDS011;6683;48.506;9.050;2022-11-18T08:05:30;1.40;;;0.80;;
13234;SDS011;6683;48.506;9.050;2022-11-18T08:08:33;2.47;;;0.80;;
13234;SDS011;6683;48.506;9.050;2022-11-18T08:11:37;0.97;;;0.83;;
13234;SDS011;6683;48.506;9.050;2022-11-18T08:14:39;0.83;;;0.73;;
13234;SDS011;6683;48.506;9.050;2022-11-18T08:17:42;0.80;;;0.80;;
13234;SDS011;6683;48.506;9.050;2022-11-18T08:20:45;1.30;;;1.20;;
13234;SDS011;6683;48.506;9.050;2022-11-18T08:23:48;0.70;;;0.70;;
13234;SDS011;6683;48.506;9.050;2022-11-18T08:26:53;1.50;;;1.00;;
13234;SDS011;6683;48.506;9.050;2022-11-18T08:29:55;1.97;;;1.10;;
13234;SDS011;6683;48.506;9.050;2022-11-18T08:32:58;3.20;;;1.20;;
13234;SDS011;6683;48.506;9.050;2022-11-18T08:36:04;1.00;;;0.73;;
13234;SDS011;6683;48.506;9.050;2022-11-18T08:39:10;2.00;;;0.50;;
13234;SDS011;6683;48.506;9.050;2022-11-18T08:42:15;0.50;;;0.50;;
13234;SDS011;6683;48.506;9.050;2022-11-18T08:45:21;0.70;;;0.70;;
13234;SDS011;6683;48.506;9.050;2022-11-18T08:48:23;0.60;;;0.50;;
13234;SDS011;6683;48.506;9.050;2022-11-18T08:51:26;1.57;;;1.07;;
13234;SDS011;6683;48.506;9.050;2022-11-18T08:54:29;0.90;;;0.90;;
13234;SDS011;6683;48.506;9.050;2022-11-18T08:57:33;1.00;;;0.90;;
13234;SDS011;6683;48.506;9.050;2022-11-18T09:00:36;1.87;;;1.10;;
13234;SDS011;6683;48.506;9.050;2022-11-18T09:03:38;1.50;;;1.40;;
13234;SDS011;6683;48.506;9.050;2022-11-18T09:06:41;1.47;;;1.10;;
13234;SDS011;6683;48.506;9.050;2022-11-18T09:09:44;1.30;;;1.00;;
13234;SDS011;6683;48.506;9.050;2022-11-18T09:12:48;1.30;;;1.20;;
13234;SDS011;6683;48.506;9.050;2022-11-18T09:15:51;2.53;;;1.00;;
13234;SDS011;6683;48.506;9.050;2022-11-18T09:18:54;0.93;;;0.83;;
13234;SDS011;6683;48.506;9.050;2022-11-18T09:21:58;0.60;;;0.60;;
13234;SDS011;6683;48.506;9.050;2022-11-18T09:25:00;0.60;;;0.50;;
13234;SDS011;6683;48.506;9.050;2022-11-18T09:28:04;0.80;;;0.47;;
13234;SDS011;6683;48.506;9.050;2022-11-18T09:31:07;0.80;;;0.70;;
13234;SDS011;6683;48.506;9.050;2022-11-18T09:34:13;0.80;;;0.50;;
13234;SDS011;6683;48.506;9.050;2022-11-18T09:37:15;0.50;;;0.50;;
13234;SDS011;6683;48.506;9.050;2022-11-18T09:40:18;0.60;;;0.60;;
13234;SDS011;6683;48.506;9.050;2022-11-18T09:43:24;0.40;;;0.40;;
13234;SDS011;6683;48.506;9.050;2022-11-18T09:46:36;0.40;;;0.40;;
13234;SDS011;6683;48.506;9.050;2022-11-18T09:49:49;0.87;;;0.40;;
13234;SDS011;6683;48.506;9.050;2022-11-18T09:52:58;0.43;;;0.43;;
13234;SDS011;6683;48.506;9.050;2022-11-18T09:56:11;1.43;;;0.40;;
13234;SDS011;6683;48.506;9.050;2022-11-18T09:59:18;0.63;;;0.50;;
13234;SDS011;6683;48.506;9.050;2022-11-18T10:02:28;0.40;;;0.40;;
13234;SDS011;6683;48.506;9.050;2022-11-18T10:05:43;0.63;;;0.40;;
13234;SDS011;6683;48.506;9.050;2022-11-18T10:08:55;0.37;;;0.30;;
13234;SDS011;6683;48.506;9.050;2022-11-18T10:12:15;0.60;;;0.33;;
13234;SDS011;6683;48.506;9.050;2022-11-18T10:15:28;0.33;;;0.30;;
13234;SDS011;6683;48.506;9.050;2022-11-18T10:18:37;0.30;;;0.30;;
13234;SDS011;6683;48.506;9.050;2022-11-18T10:21:49;0.53;;;0.40;;
13234;SDS011;6683;48.506;9.050;2022-11-18T10:25:01;0.40;;;0.40;;
13234;SDS011;6683;48.506;9.050;2022-11-18T10:28:12;0.53;;;0.40;;
13234;SDS011;6683;48.506;9.050;2022-11-18T10:31:23;0.93;;;0.30;;
13234;SDS011;6683;48.506;9.050;2022-11-18T10:34:25;0.40;;;0.30;;
13234;SDS011;6683;48.506;9.050;2022-11-18T10:37:29;0.80;;;0.33;;
13234;SDS011;6683;48.506;9.050;2022-11-18T10:40:33;0.50;;;0.40;;
13234;SDS011;6683;48.506;9.050;2022-11-18T10:43:42;0.77;;;0.40;;
13234;SDS011;6683;48.506;9.050;2022-11-18T10:46:50;0.77;;;0.30;;
13234;SDS011;6683;48.506;9.050;2022-11-18T10:49:53;0.40;;;0.40;;
13234;SDS011;6683;48.506;9.050;2022-11-18T10:52:58;0.57;;;0.40;;
13234;SDS011;6683;48.506;9.050;2022-11-18T10:56:01;0.70;;;0.50;;
13234;SDS011;6683;48.506;9.050;2022-11-18T10:59:10;0.77;;;0.40;;
13234;SDS011;6683;48.506;9.050;2022-11-18T11:02:26;0.83;;;0.30;;
13234;SDS011;6683;48.506;9.050;2022-11-18T11:05:32;0.33;;;0.30;;
13234;SDS011;6683;48.506;9.050;2022-11-18T11:08:35;0.47;;;0.30;;
13234;SDS011;6683;48.506;9.050;2022-11-18T11:11:54;0.50;;;0.40;;
13234;SDS011;6683;48.506;9.050;2022-11-18T11:15:01;1.37;;;0.40;;
13234;SDS011;6683;48.506;9.050;2022-11-18T11:18:10;0.50;;;0.50;;
13234;SDS011;6683;48.506;9.050;2022-11-18T11:21:35;0.30;;;0.30;;
13234;SDS011;6683;48.506;9.050;2022-11-18T11:24:37;0.50;;;0.50;;
13234;SDS011;6683;48.506;9.050;2022-11-18T11:27:45;0.60;;;0.60;;
13234;SDS011;6683;48.506;9.050;2022-11-18T11:30:58;0.90;;;0.60;;
13234;SDS011;6683;48.506;9.050;2022-11-18T11:34:16;0.50;;;0.50;;
13234;SDS011;6683;48.506;9.050;2022-11-18T11:37:26;0.77;;;0.40;;
13234;SDS011;6683;48.506;9.050;2022-11-18T11:40:43;0.50;;;0.50;;
13234;SDS011;6683;48.506;9.050;2022-11-18T11:44:01;1.03;;;0.30;;
13234;SDS011;6683;48.506;9.050;2022-11-18T11:47:40;1.70;;;0.70;;
13234;SDS011;6683;48.506;9.050;2022-11-18T11:50:59;0.50;;;0.50;;
13234;SDS011;6683;48.506;9.050;2022-11-18T11:54:17;0.60;;;0.60;;
13234;SDS011;6683;48.506;9.050;2022-11-18T11:57:38;1.93;;;0.60;;
13234;SDS011;6683;48.506;9.050;2022-11-18T12:00:52;0.60;;;0.50;;
13234;SDS011;6683;48.506;9.050;2022-11-18T12:04:09;0.40;;;0.40;;
13234;SDS011;6683;48.506;9.050;2022-11-18T12:07:27;0.53;;;0.53;;
13234;SDS011;6683;48.506;9.050;2022-11-18T12:10:38;0.40;;;0.40;;
13234;SDS011;6683;48.506;9.050;2022-11-18T12:13:49;0.80;;;0.60;;
13234;SDS011;6683;48.506;9.050;2022-11-18T12:16:59;0.50;;;0.50;;
13234;SDS011;6683;48.506;9.050;2022-11-18T12:23:42;0.60;;;0.60;;
13234;SDS011;6683;48.506;9.050;2022-11-18T12:34:42;0.73;;;0.60;;
13234;SDS011;6683;48.506;9.050;2022-11-18T12:37:55;0.60;;;0.60;;
13234;SDS011;6683;48.506;9.050;2022-11-18T12:41:02;0.70;;;0.70;;
13234;SDS011;6683;48.506;9.050;2022-11-18T12:44:45;0.60;;;0.60;;
13234;SDS011;6683;48.506;9.050;2022-11-18T12:47:57;0.70;;;0.70;;
13234;SDS011;6683;48.506;9.050;2022-11-18T12:51:07;0.60;;;0.60;;
13234;SDS011;6683;48.506;9.050;2022-11-18T12:54:45;0.80;;;0.60;;
13234;SDS011;6683;48.506;9.050;2022-11-18T12:57:51;0.60;;;0.60;;
13234;SDS011;6683;48.506;9.050;2022-11-18T13:01:03;1.53;;;0.60;;
13234;SDS011;6683;48.506;9.050;2022-11-18T13:04:10;0.60;;;0.60;;
13234;SDS011;6683;48.506;9.050;2022-11-18T13:07:15;0.93;;;0.60;;
13234;SDS011;6683;48.506;9.050;2022-11-18T13:10:34;1.07;;;0.60;;
13234;SDS011;6683;48.506;9.050;2022-11-18T13:13:46;1.27;;;0.60;;
13234;SDS011;6683;48.506;9.050;2022-11-18T13:17:24;0.70;;;0.70;;
13234;SDS011;6683;48.506;9.050;2022-11-18T13:20:53;0.60;;;0.60;;
13234;SDS011;6683;48.506;9.050;2022-11-18T13:24:20;0.60;;;0.60;;
13234;SDS011;6683;48.506;9.050;2022-11-18T13:27:25;0.50;;;0.50;;
13234;SDS011;6683;48.506;9.050;2022-11-18T13:30:50;0.70;;;0.70;;
13234;SDS011;6683;48.506;9.050;2022-11-18T13:34:00;1.33;;;0.70;;
13234;SDS011;6683;48.506;9.050;2022-11-18T13:37:11;1.27;;;0.80;;
13234;SDS011;6683;48.506;9.050;2022-11-18T13:40:20;0.60;;;0.60;;
13234;SDS011;6683;48.506;9.050;2022-11-18T13:43:26;1.67;;;0.60;;
13234;SDS011;6683;48.506;9.050;2022-11-18T13:46:29;0.70;;;0.70;;
13234;SDS011;6683;48.506;9.050;2022-11-18T13:49:36;0.73;;;0.60;;
13234;SDS011;6683;48.506;9.050;2022-11-18T13:52:52;0.77;;;0.70;;
13234;SDS011;6683;48.506;9.050;2022-11-18T13:56:12;0.60;;;0.60;;
13234;SDS011;6683;48.506;9.050;2022-11-18T13:59:20;0.70;;;0.70;;
13234;SDS011;6683;48.506;9.050;2022-11-18T14:02:27;2.97;;;0.80;;
13234;SDS011;6683;48.506;9.050;2022-11-18T14:05:30;1.13;;;0.63;;
13234;SDS011;6683;48.506;9.050;2022-11-18T14:08:33;0.80;;;0.80;;
13234;SDS011;6683;48.506;9.050;2022-11-18T14:11:38;0.80;;;0.80;;
13234;SDS011;6683;48.506;9.050;2022-11-18T14:14:42;0.80;;;0.80;;
13234;SDS011;6683;48.506;9.050;2022-11-18T14:17:50;0.80;;;0.67;;
13234;SDS011;6683;48.506;9.050;2022-11-18T14:20:56;0.97;;;0.60;;
13234;SDS011;6683;48.506;9.050;2022-11-18T14:24:00;0.90;;;0.90;;
13234;SDS011;6683;48.506;9.050;2022-11-18T14:30:57;1.70;;;0.80;;
13234;SDS011;6683;48.506;9.050;2022-11-18T14:34:10;5.33;;;1.07;;
13234;SDS011;6683;48.506;9.050;2022-11-18T14:37:24;0.57;;;0.57;;
13234;SDS011;6683;48.506;9.050;2022-11-18T14:40:26;0.60;;;0.60;;
13234;SDS011;6683;48.506;9.050;2022-11-18T14:43:29;0.80;;;0.70;;
13234;SDS011;6683;48.506;9.050;2022-11-18T14:46:31;1.87;;;0.70;;
13234;SDS011;6683;48.506;9.050;2022-11-18T14:49:38;0.60;;;0.60;;
13234;SDS011;6683;48.506;9.050;2022-11-18T14:52:40;0.70;;;0.70;;
13234;SDS011;6683;48.506;9.050;2022-11-18T14:55:43;0.70;;;0.70;;
13234;SDS011;6683;48.506;9.050;2022-11-18T14:58:48;2.37;;;0.80;;
13234;SDS011;6683;48.506;9.050;2022-11-18T15:01:50;0.80;;;0.80;;
13234;SDS011;6683;48.506;9.050;2022-11-18T15:04:54;0.70;;;0.70;;
13234;SDS011;6683;48.506;9.050;2022-11-18T15:07:56;0.90;;;0.90;;
13234;SDS011;6683;48.506;9.050;2022-11-18T15:10:59;0.83;;;0.83;;
13234;SDS011;6683;48.506;9.050;2022-11-18T15:14:01;0.83;;;0.80;;
13234;SDS011;6683;48.506;9.050;2022-11-18T15:17:04;4.07;;;1.20;;
13234;SDS011;6683;48.506;9.050;2022-11-18T15:20:10;1.40;;;1.10;;
13234;SDS011;6683;48.506;9.050;2022-11-18T15:23:15;1.43;;;0.90;;
13234;SDS011;6683;48.506;9.050;2022-11-18T15:26:18;0.90;;;0.90;;
13234;SDS011;6683;48.506;9.050;2022-11-18T15:29:23;1.40;;;0.90;;
13234;SDS011;6683;48.506;9.050;2022-11-18T15:32:26;0.93;;;0.90;;
13234;SDS011;6683;48.506;9.050;2022-11-18T15:35:31;1.20;;;1.10;;
13234;SDS011;6683;48.506;9.050;2022-11-18T15:38:34;1.90;;;0.90;;
13234;SDS011;6683;48.506;9.050;2022-11-18T15:41:37;1.57;;;1.30;;
13234;SDS011;6683;48.506;9.050;2022-11-18T15:44:41;2.20;;;1.20;;
13234;SDS011;6683;48.506;9.050;2022-11-18T15:47:44;1.10;;;1.00;;
13234;SDS011;6683;48.506;9.050;2022-11-18T15:50:48;1.00;;;1.00;;
13234;SDS011;6683;48.506;9.050;2022-11-18T15:53:50;1.23;;;0.90;;
13234;SDS011;6683;48.506;9.050;2022-11-18T15:56:53;1.77;;;0.90;;
13234;SDS011;6683;48.506;9.050;2022-11-18T15:59:56;1.17;;;0.73;;
13234;SDS011;6683;48.506;9.050;2022-11-18T16:02:58;2.07;;;0.90;;
13234;SDS011;6683;48.506;9.050;2022-11-18T16:06:02;1.07;;;0.97;;
13234;SDS011;6683;48.506;9.050;2022-11-18T16:09:05;3.30;;;1.30;;
13234;SDS011;6683;48.506;9.050;2022-11-18T16:12:08;2.00;;;1.30;;
13234;SDS011;6683;48.506;9.050;2022-11-18T16:15:28;2.57;;;1.60;;
13234;SDS011;6683;48.506;9.050;2022-11-18T16:18:47;1.70;;;1.60;;
13234;SDS011;6683;48.506;9.050;2022-11-18T16:21:52;2.97;;;1.97;;
13234;SDS011;6683;48.506;9.050;2022-11-18T16:24:56;3.73;;;1.90;;
13234;SDS011;6683;48.506;9.050;2022-11-18T16:27:59;4.20;;;2.50;;
13234;SDS011;6683;48.506;9.050;2022-11-18T16:31:01;6.60;;;4.00;;
13234;SDS011;6683;48.506;9.050;2022-11-18T16:34:23;6.77;;;4.70;;
13234;SDS011;6683;48.506;9.050;2022-11-18T16:37:29;7.00;;;4.37;;
13234;SDS011;6683;48.506;9.050;2022-11-18T16:40:31;4.63;;;3.47;;
13234;SDS011;6683;48.506;9.050;2022-11-18T16:43:33;3.03;;;2.73;;
13234;SDS011;6683;48.506;9.050;2022-11-18T16:46:36;3.47;;;2.80;;
13234;SDS011;6683;48.506;9.050;2022-11-18T16:49:40;2.20;;;1.90;;
13234;SDS011;6683;48.506;9.050;2022-11-18T16:52:44;2.20;;;2.00;;
13234;SDS011;6683;48.506;9.050;2022-11-18T16:55:46;2.63;;;1.93;;
13234;SDS011;6683;48.506;9.050;2022-11-18T16:58:49;2.03;;;1.10;;
13234;SDS011;6683;48.506;9.050;2022-11-18T17:01:56;1.30;;;1.20;;
13234;SDS011;6683;48.506;9.050;2022-11-18T17:05:00;1.73;;;1.30;;
13234;SDS011;6683;48.506;9.050;2022-11-18T17:08:05;1.27;;;1.13;;
13234;SDS011;6683;48.506;9.050;2022-11-18T17:11:08;2.43;;;1.30;;
13234;SDS011;6683;48.506;9.050;2022-11-18T17:14:11;2.37;;;1.70;;
13234;SDS011;6683;48.506;9.050;2022-11-18T17:17:14;2.73;;;1.97;;
13234;SDS011;6683;48.506;9.050;2022-11-18T17:20:17;2.33;;;1.57;;
13234;SDS011;6683;48.506;9.050;2022-11-18T17:23:21;1.77;;;1.67;;
13234;SDS011;6683;48.506;9.050;2022-11-18T17:26:24;2.93;;;2.10;;
13234;SDS011;6683;48.506;9.050;2022-11-18T17:29:28;4.27;;;2.07;;
13234;SDS011;6683;48.506;9.050;2022-11-18T17:32:32;2.47;;;2.27;;
13234;SDS011;6683;48.506;9.050;2022-11-18T17:35:34;3.67;;;2.33;;
13234;SDS011;6683;48.506;9.050;2022-11-18T17:38:38;2.00;;;1.70;;
13234;SDS011;6683;48.506;9.050;2022-11-18T17:41:42;1.80;;;1.50;;
13234;SDS011;6683;48.506;9.050;2022-11-18T17:45:03;1.70;;;1.60;;
13234;SDS011;6683;48.506;9.050;2022-11-18T17:48:06;1.60;;;1.40;;
13234;SDS011;6683;48.506;9.050;2022-11-18T17:51:09;1.40;;;1.30;;
13234;SDS011;6683;48.506;9.050;2022-11-18T17:54:13;1.73;;;1.30;;
13234;SDS011;6683;48.506;9.050;2022-11-18T17:57:17;2.63;;;2.37;;
13234;SDS011;6683;48.506;9.050;2022-11-18T18:00:19;4.37;;;3.77;;
13234;SDS011;6683;48.506;9.050;2022-11-18T18:03:22;3.33;;;3.00;;
13234;SDS011;6683;48.506;9.050;2022-11-18T18:06:25;3.20;;;2.90;;
13234;SDS011;6683;48.506;9.050;2022-11-18T18:09:29;5.97;;;3.10;;
13234;SDS011;6683;48.506;9.050;2022-11-18T18:12:32;3.17;;;2.80;;
13234;SDS011;6683;48.506;9.050;2022-11-18T18:15:59;2.40;;;2.20;;
13234;SDS011;6683;48.506;9.050;2022-11-18T18:19:03;1.80;;;1.60;;
13234;SDS011;6683;48.506;9.050;2022-11-18T18:22:06;1.63;;;1.50;;
13234;SDS011;6683;48.506;9.050;2022-11-18T18:25:10;2.27;;;1.67;;
13234;SDS011;6683;48.506;9.050;2022-11-18T18:28:13;1.93;;;1.73;;
13234;SDS011;6683;48.506;9.050;2022-11-18T18:31:16;2.20;;;2.00;;
13234;SDS011;6683;48.506;9.050;2022-11-18T18:34:19;2.03;;;1.90;;
13234;SDS011;6683;48.506;9.050;2022-11-18T18:37:21;2.77;;;2.20;;
13234;SDS011;6683;48.506;9.050;2022-11-18T18:40:26;3.47;;;1.80;;
13234;SDS011;6683;48.506;9.050;2022-11-18T18:43:28;2.10;;;1.90;;
13234;SDS011;6683;48.506;9.050;2022-11-18T18:46:31;2.20;;;2.00;;
13234;SDS011;6683;48.506;9.050;2022-11-18T18:49:35;3.90;;;2.20;;
13234;SDS011;6683;48.506;9.050;2022-11-18T18:52:37;2.20;;;2.00;;
13234;SDS011;6683;48.506;9.050;2022-11-18T18:55:41;2.97;;;2.20;;
13234;SDS011;6683;48.506;9.050;2022-11-18T18:58:43;2.37;;;2.00;;
13234;SDS011;6683;48.506;9.050;2022-11-18T19:01:46;2.00;;;1.53;;
13234;SDS011;6683;48.506;9.050;2022-11-18T19:04:48;2.30;;;2.10;;
13234;SDS011;6683;48.506;9.050;2022-11-18T19:07:52;3.07;;;2.00;;
13234;SDS011;6683;48.506;9.050;2022-11-18T19:10:56;1.63;;;1.53;;
13234;SDS011;6683;48.506;9.050;2022-11-18T19:13:59;1.60;;;1.50;;
13234;SDS011;6683;48.506;9.050;2022-11-18T19:17:03;2.03;;;1.53;;